Time;durP1;ratioP1;P1;durP2;ratioP2;P2;SDS_P1;SDS_P2;PMS_P1;PMS_P2;Temp;Humidity;BMP_temperature;BMP_pressure;BME280_temperature;BME280_humidity;BME280_pressure;Samples;Min_cycle;Max_cycle;Signal;HPM_P1;HPM_P2
2023/07/29 00:02:05;;;;;;;8.32;7.38;;;18.20;99.90;;;;;;5052660;28;20502;-81
2023/07/29 00:04:31;;;;;;;8.82;8.02;;;18.10;99.90;;;;;;5055157;28;20119;-81
2023/07/29 00:06:57;;;;;;;8.80;7.90;;;18.20;99.90;;;;;;5053479;28;20091;-80
2023/07/29 00:09:22;;;;;;;10.52;8.35;;;18.10;99.90;;;;;;5047890;28;20571;-81
2023/07/29 00:11:48;;;;;;;8.90;8.00;;;18.10;99.90;;;;;;5057612;28;20115;-80
2023/07/29 00:14:13;;;;;;;8.98;8.20;;;18.10;99.90;;;;;;5052634;28;20116;-80
2023/07/29 00:16:39;;;;;;;9.15;8.23;;;18.00;99.90;;;;;;5053180;28;20117;-80
2023/07/29 00:19:04;;;;;;;8.88;7.82;;;18.00;99.90;;;;;;5051293;28;20033;-81
2023/07/29 00:21:30;;;;;;;8.52;7.72;;;18.10;99.90;;;;;;5063857;28;20029;-81
2023/07/29 00:23:58;;;;;;;8.55;7.30;;;18.00;99.90;;;;;;5047962;28;20123;-81
2023/07/29 00:26:27;;;;;;;8.75;7.53;;;18.00;99.90;;;;;;5053625;28;20052;-81
2023/07/29 00:28:53;;;;;;;8.07;7.43;;;18.00;99.90;;;;;;5050606;28;20084;-81
2023/07/29 00:31:18;;;;;;;8.48;7.57;;;18.00;99.90;;;;;;5050189;28;20503;-81
2023/07/29 00:33:44;;;;;;;11.60;8.32;;;18.00;99.90;;;;;;5053291;28;21184;-81
2023/07/29 00:36:10;;;;;;;9.65;8.00;;;17.90;99.90;;;;;;5050643;28;20064;-80
2023/07/29 00:38:35;;;;;;;8.35;7.65;;;17.90;99.90;;;;;;5049727;28;20045;-81
2023/07/29 00:41:03;;;;;;;9.45;7.35;;;17.90;99.90;;;;;;5046952;28;20071;-80
2023/07/29 00:43:28;;;;;;;7.72;7.03;;;17.90;99.90;;;;;;5049862;28;20041;-81
2023/07/29 00:45:54;;;;;;;8.30;7.10;;;17.80;99.90;;;;;;5051984;28;20510;-81
2023/07/29 00:48:20;;;;;;;7.82;6.30;;;17.90;99.90;;;;;;5048984;28;20479;-81
2023/07/29 00:50:46;;;;;;;7.63;6.82;;;17.90;99.90;;;;;;5055075;28;20045;-81
2023/07/29 00:53:11;;;;;;;7.60;6.90;;;17.90;99.90;;;;;;5053548;28;20404;-81
2023/07/29 00:55:37;;;;;;;6.80;6.15;;;17.90;99.90;;;;;;5048427;28;20045;-81
2023/07/29 00:58:03;;;;;;;8.52;7.10;;;17.90;99.90;;;;;;5050755;28;20534;-81
2023/07/29 01:00:28;;;;;;;6.88;6.28;;;17.80;99.90;;;;;;5054893;28;20431;-81
2023/07/29 01:02:54;;;;;;;6.15;5.55;;;17.90;99.90;;;;;;5050356;28;20037;-80
2023/07/29 01:05:20;;;;;;;9.68;6.70;;;17.80;99.90;;;;;;5049483;28;20029;-81
2023/07/29 01:08:00;;;;;;;6.78;6.07;;;17.90;99.90;;;;;;5049651;28;20048;-81
2023/07/29 01:10:43;;;;;;;7.40;6.80;;;17.80;99.90;;;;;;5042225;28;20130;-81
2023/07/29 01:13:14;;;;;;;8.63;7.15;;;17.70;99.90;;;;;;5046532;28;20048;-81
2023/07/29 01:16:01;;;;;;;7.40;6.60;;;17.70;99.90;;;;;;5041603;28;20037;-81
2023/07/29 01:18:30;;;;;;;8.13;6.53;;;17.70;99.90;;;;;;5051768;28;20045;-81
2023/07/29 01:21:03;;;;;;;7.93;6.40;;;17.60;99.90;;;;;;5049203;28;21051;-80
2023/07/29 01:23:36;;;;;;;9.75;6.80;;;17.60;99.90;;;;;;5054162;28;20096;-81
2023/07/29 01:26:03;;;;;;;7.82;6.60;;;17.60;99.90;;;;;;5053389;28;20044;-80
2023/07/29 01:28:28;;;;;;;8.20;6.53;;;17.60;99.90;;;;;;5050444;28;20037;-80
2023/07/29 01:31:02;;;;;;;9.63;6.60;;;17.60;99.90;;;;;;5054140;28;20175;-80
2023/07/29 01:33:35;;;;;;;8.27;6.45;;;17.50;99.90;;;;;;5048000;28;20041;-79
2023/07/29 01:36:11;;;;;;;8.85;6.78;;;17.50;99.90;;;;;;5051828;28;20045;-80
2023/07/29 01:38:40;;;;;;;7.75;6.95;;;17.40;99.90;;;;;;5051695;28;20048;-80
2023/07/29 01:41:08;;;;;;;7.90;7.22;;;17.40;99.90;;;;;;5051671;28;20094;-80
2023/07/29 01:43:39;;;;;;;7.10;6.50;;;17.40;99.90;;;;;;5048118;28;20090;-80
2023/07/29 01:46:04;;;;;;;10.30;7.00;;;17.40;99.90;;;;;;5056838;28;20131;-80
2023/07/29 01:48:31;;;;;;;9.82;7.18;;;17.30;99.90;;;;;;5056219;28;20090;-80
2023/07/29 01:50:57;;;;;;;8.25;7.30;;;17.40;99.90;;;;;;5057271;28;20514;-80
2023/07/29 01:53:23;;;;;;;9.63;6.68;;;17.30;99.90;;;;;;5058598;28;20079;-80
2023/07/29 01:55:48;;;;;;;7.28;6.68;;;17.30;99.90;;;;;;5055357;28;20037;-80
2023/07/29 01:58:14;;;;;;;8.70;7.07;;;17.30;99.90;;;;;;5054642;28;20090;-81
2023/07/29 02:00:40;;;;;;;8.48;7.03;;;17.30;99.90;;;;;;5056002;28;20045;-81
2023/07/29 02:03:05;;;;;;;8.55;7.30;;;17.30;99.90;;;;;;5058336;28;20048;-79
2023/07/29 02:05:31;;;;;;;8.15;7.15;;;17.30;99.90;;;;;;5042734;28;20029;-80
2023/07/29 02:07:56;;;;;;;9.07;7.93;;;17.30;99.90;;;;;;5055316;28;20059;-80
2023/07/29 02:10:22;;;;;;;8.85;7.00;;;17.40;99.90;;;;;;5048684;28;20115;-80
2023/07/29 02:12:47;;;;;;;7.60;6.78;;;17.30;99.90;;;;;;5057603;28;20041;-81
2023/07/29 02:15:13;;;;;;;7.63;6.82;;;17.30;99.90;;;;;;5054237;28;20057;-80
2023/07/29 02:17:41;;;;;;;8.00;7.03;;;17.40;99.90;;;;;;5045383;28;20037;-81
2023/07/29 02:20:07;;;;;;;7.65;6.80;;;17.30;99.90;;;;;;5053781;28;20048;-81
2023/07/29 02:22:32;;;;;;;7.82;6.50;;;17.30;99.90;;;;;;5056897;28;20104;-80
2023/07/29 02:24:58;;;;;;;7.72;6.70;;;17.30;99.90;;;;;;5057811;28;20048;-80
2023/07/29 02:27:26;;;;;;;7.78;6.68;;;17.30;99.90;;;;;;5054129;28;20037;-80
2023/07/29 02:29:52;;;;;;;10.00;7.35;;;17.30;99.90;;;;;;5055037;28;20090;-81
2023/07/29 02:32:18;;;;;;;7.28;6.55;;;17.30;99.90;;;;;;5054658;28;20047;-80
2023/07/29 02:34:44;;;;;;;7.05;6.07;;;17.30;99.90;;;;;;5054022;28;20045;-80
2023/07/29 02:37:10;;;;;;;9.05;6.75;;;17.20;99.90;;;;;;5056746;28;20049;-81
2023/07/29 02:39:35;;;;;;;7.72;6.80;;;17.20;99.90;;;;;;5053987;28;20128;-81
2023/07/29 02:42:01;;;;;;;7.20;6.50;;;17.20;99.90;;;;;;5054781;28;20045;-81
2023/07/29 02:44:27;;;;;;;7.35;6.18;;;17.20;99.90;;;;;;5046881;28;20764;-81
2023/07/29 02:46:54;;;;;;;7.18;6.47;;;17.20;99.90;;;;;;5056417;28;20068;-79
2023/07/29 02:49:20;;;;;;;9.07;6.07;;;17.20;99.90;;;;;;5052047;28;20044;-81
2023/07/29 02:51:45;;;;;;;8.02;6.22;;;17.20;99.90;;;;;;5054795;28;20040;-80
2023/07/29 02:54:11;;;;;;;9.75;6.32;;;17.20;99.90;;;;;;5055718;28;20047;-80
2023/07/29 02:56:36;;;;;;;6.68;5.97;;;17.20;99.90;;;;;;5045059;28;20040;-81
2023/07/29 02:59:02;;;;;;;7.30;6.10;;;17.20;99.90;;;;;;5058382;28;20045;-80
2023/07/29 03:01:27;;;;;;;6.95;6.35;;;17.20;99.90;;;;;;5055968;28;20036;-80
2023/07/29 03:03:53;;;;;;;7.50;6.25;;;17.20;99.90;;;;;;5053832;28;20549;-79
2023/07/29 03:06:18;;;;;;;6.15;5.55;;;17.20;99.90;;;;;;5039504;28;20080;-81
2023/07/29 03:08:44;;;;;;;6.30;5.80;;;17.20;99.90;;;;;;5053663;28;20124;-81
2023/07/29 03:11:15;;;;;;;6.90;5.72;;;17.20;99.90;;;;;;5054886;28;20086;-80
2023/07/29 03:13:41;;;;;;;6.20;5.57;;;17.20;99.90;;;;;;5054651;28;20055;-79
2023/07/29 03:16:14;;;;;;;6.18;5.35;;;17.20;99.90;;;;;;5059217;28;20033;-80
2023/07/29 03:18:42;;;;;;;7.63;5.40;;;17.20;99.90;;;;;;5053353;28;20067;-80
2023/07/29 03:21:07;;;;;;;5.68;5.18;;;17.10;99.90;;;;;;5051145;28;20052;-81
2023/07/29 03:23:34;;;;;;;9.70;5.72;;;17.20;99.90;;;;;;5055290;28;20044;-80
2023/07/29 03:26:00;;;;;;;5.82;5.30;;;17.10;99.90;;;;;;5054456;28;20041;-81
2023/07/29 03:28:28;;;;;;;8.60;5.18;;;17.00;99.90;;;;;;5052241;28;20365;-80
2023/07/29 03:30:54;;;;;;;7.28;4.85;;;17.00;99.90;;;;;;5056895;28;20128;-80
2023/07/29 03:33:20;;;;;;;4.65;4.25;;;17.00;99.90;;;;;;5056403;28;20425;-80
2023/07/29 03:35:46;;;;;;;5.28;4.70;;;17.00;99.90;;;;;;5051797;28;20037;-81
2023/07/29 03:38:12;;;;;;;5.88;4.55;;;16.90;99.90;;;;;;5052553;28;20049;-80
2023/07/29 03:40:38;;;;;;;5.55;4.60;;;16.90;99.90;;;;;;5056810;28;20479;-80
2023/07/29 03:43:04;;;;;;;5.00;4.43;;;16.90;99.90;;;;;;5047901;28;20055;-79
2023/07/29 03:45:29;;;;;;;5.20;4.68;;;16.90;99.90;;;;;;5055217;28;20041;-81
2023/07/29 03:47:55;;;;;;;6.18;4.65;;;16.90;99.90;;;;;;5054118;28;20163;-80
2023/07/29 03:50:21;;;;;;;5.47;4.43;;;16.80;99.90;;;;;;5050889;28;20373;-79
2023/07/29 03:52:46;;;;;;;6.10;4.32;;;16.80;99.90;;;;;;5032856;28;20036;-80
2023/07/29 03:55:12;;;;;;;9.30;4.63;;;17.00;99.90;;;;;;5054977;28;20404;-79
2023/07/29 03:57:37;;;;;;;6.40;4.10;;;16.80;99.90;;;;;;5054656;28;20037;-80
2023/07/29 04:00:04;;;;;;;7.20;4.07;;;16.70;99.90;;;;;;5059790;28;20043;-81
2023/07/29 04:02:29;;;;;;;6.13;4.07;;;16.80;99.90;;;;;;5038125;28;20045;-79
2023/07/29 04:04:55;;;;;;;5.25;3.72;;;16.80;99.90;;;;;;5044237;28;20063;-80
2023/07/29 04:07:20;;;;;;;6.45;4.45;;;16.70;99.90;;;;;;5053378;28;20037;-81
2023/07/29 04:09:46;;;;;;;6.35;4.20;;;16.70;99.90;;;;;;5033416;28;20047;-80
2023/07/29 04:12:11;;;;;;;6.97;4.25;;;16.70;99.90;;;;;;5038988;28;20102;-81
2023/07/29 04:14:37;;;;;;;5.28;3.85;;;16.80;99.90;;;;;;5055615;28;20136;-81
2023/07/29 04:17:03;;;;;;;8.70;3.67;;;16.70;99.90;;;;;;5053543;28;20040;-81
2023/07/29 04:19:28;;;;;;;6.85;3.97;;;16.70;99.90;;;;;;5052953;28;20069;-80
2023/07/29 04:21:54;;;;;;;8.50;3.67;;;16.70;99.90;;;;;;5054535;28;20068;-79
2023/07/29 04:24:20;;;;;;;5.60;3.65;;;16.70;99.90;;;;;;5050074;28;20041;-81
2023/07/29 04:26:45;;;;;;;4.28;3.60;;;16.70;99.90;;;;;;5053477;28;20032;-81
2023/07/29 04:29:11;;;;;;;5.65;3.42;;;16.70;99.90;;;;;;5047455;28;20373;-80
2023/07/29 04:31:37;;;;;;;4.43;3.78;;;16.70;99.90;;;;;;5051576;28;20047;-80
2023/07/29 04:34:04;;;;;;;4.45;3.15;;;16.80;99.90;;;;;;5033521;28;20051;-79
2023/07/29 04:36:29;;;;;;;7.15;2.90;;;16.80;99.90;;;;;;5051110;28;20407;-81
2023/07/29 04:38:55;;;;;;;4.20;3.05;;;16.80;99.90;;;;;;5051132;28;20049;-80
2023/07/29 04:41:20;;;;;;;6.20;3.22;;;16.80;99.90;;;;;;5047715;28;20045;-80
2023/07/29 04:43:46;;;;;;;3.85;3.08;;;16.80;99.90;;;;;;5047393;28;20041;-78
2023/07/29 04:46:12;;;;;;;4.07;3.03;;;16.80;99.90;;;;;;5069903;28;20045;-80
2023/07/29 04:48:37;;;;;;;4.45;3.40;;;16.80;99.90;;;;;;5052172;28;20029;-80
2023/07/29 04:51:03;;;;;;;3.70;2.83;;;16.80;99.90;;;;;;5052545;28;20067;-80
2023/07/29 04:53:29;;;;;;;6.45;3.40;;;16.70;99.90;;;;;;5054033;28;20049;-79
2023/07/29 04:55:54;;;;;;;8.13;3.97;;;16.80;99.90;;;;;;5052230;28;20051;-80
2023/07/29 04:58:20;;;;;;;5.07;3.28;;;16.80;99.90;;;;;;5050325;28;20033;-80
2023/07/29 05:00:47;;;;;;;5.28;3.15;;;16.80;99.90;;;;;;5034989;28;20117;-80
2023/07/29 05:03:12;;;;;;;4.20;3.00;;;16.80;99.90;;;;;;5033168;28;20067;-80
2023/07/29 05:05:38;;;;;;;7.28;3.10;;;16.80;99.90;;;;;;5035426;28;20041;-80
2023/07/29 05:08:03;;;;;;;4.43;3.25;;;16.80;99.90;;;;;;5053719;28;20067;-80
2023/07/29 05:10:29;;;;;;;2.90;2.35;;;16.80;99.90;;;;;;5055371;28;20052;-80
2023/07/29 05:12:55;;;;;;;3.70;2.83;;;16.80;99.90;;;;;;5051599;28;20120;-81
2023/07/29 05:15:20;;;;;;;3.85;2.58;;;16.80;99.90;;;;;;5050220;28;20041;-80
2023/07/29 05:17:46;;;;;;;3.70;3.13;;;16.90;99.90;;;;;;5048864;28;20108;-81
2023/07/29 05:20:11;;;;;;;9.77;3.13;;;16.90;99.90;;;;;;5051135;28;20060;-80
2023/07/29 05:22:37;;;;;;;6.35;2.92;;;16.90;99.90;;;;;;5052284;28;20033;-80
2023/07/29 05:25:03;;;;;;;4.68;2.53;;;16.90;99.90;;;;;;5053102;28;20403;-78
2023/07/29 05:27:28;;;;;;;4.80;2.40;;;17.00;99.90;;;;;;5051976;28;20109;-79
2023/07/29 05:29:54;;;;;;;3.40;2.20;;;17.00;99.90;;;;;;5046320;28;20123;-80
2023/07/29 05:32:19;;;;;;;4.45;2.85;;;17.00;99.90;;;;;;5052352;28;20060;-80
2023/07/29 05:34:45;;;;;;;2.80;2.15;;;17.10;99.90;;;;;;5050125;28;20056;-80
2023/07/29 05:37:10;;;;;;;5.57;2.15;;;17.10;99.90;;;;;;5052835;28;20044;-80
2023/07/29 05:39:37;;;;;;;4.85;2.30;;;17.10;99.90;;;;;;5050401;28;20044;-80
2023/07/29 05:42:03;;;;;;;10.07;2.80;;;17.10;99.90;;;;;;5050014;28;20056;-80
2023/07/29 05:44:30;;;;;;;3.22;2.30;;;17.10;99.90;;;;;;5051640;28;20029;-79
2023/07/29 05:46:56;;;;;;;5.35;2.13;;;17.20;99.90;;;;;;5051486;28;20143;-80
2023/07/29 05:49:22;;;;;;;3.47;2.40;;;17.20;99.90;;;;;;5045315;28;20510;-80
2023/07/29 05:51:47;;;;;;;3.80;2.20;;;17.20;99.90;;;;;;5049534;28;20037;-80
2023/07/29 05:54:13;;;;;;;5.60;2.50;;;17.20;99.90;;;;;;5049593;28;20040;-79
2023/07/29 05:56:39;;;;;;;6.95;2.70;;;17.20;99.90;;;;;;5047936;28;20662;-80
2023/07/29 05:59:04;;;;;;;8.38;2.95;;;17.20;99.90;;;;;;5045984;28;20126;-79
2023/07/29 06:01:30;;;;;;;4.30;2.45;;;17.30;99.90;;;;;;5037964;28;20044;-79
2023/07/29 06:03:55;;;;;;;7.22;2.80;;;17.30;99.90;;;;;;5047106;28;20041;-80
2023/07/29 06:06:23;;;;;;;7.20;2.95;;;17.30;99.90;;;;;;5046503;28;20037;-80
2023/07/29 06:08:49;;;;;;;8.18;2.95;;;17.30;99.90;;;;;;5043396;28;20041;-80
2023/07/29 06:11:15;;;;;;;3.63;3.03;;;17.40;99.90;;;;;;5050132;28;20514;-80
2023/07/29 06:13:40;;;;;;;6.18;3.38;;;17.40;99.90;;;;;;5048159;28;20040;-81
2023/07/29 06:16:06;;;;;;;4.53;2.80;;;17.40;99.90;;;;;;5050054;28;20033;-80
2023/07/29 06:18:31;;;;;;;7.25;2.85;;;17.40;99.90;;;;;;5025383;28;20036;-82
2023/07/29 06:20:58;;;;;;;7.65;4.05;;;17.50;99.90;;;;;;5047349;28;20044;-80
2023/07/29 06:23:24;;;;;;;5.03;2.60;;;17.80;99.90;;;;;;5047865;28;20465;-78
2023/07/29 06:25:49;;;;;;;5.18;2.60;;;18.50;99.90;;;;;;5049333;28;20120;-79
2023/07/29 06:28:15;;;;;;;5.32;2.70;;;19.40;99.90;;;;;;5049432;28;20041;-79
2023/07/29 06:30:40;;;;;;;5.28;2.50;;;20.30;99.90;;;;;;5048798;28;20039;-79
2023/07/29 06:33:06;;;;;;;4.80;2.75;;;20.80;99.90;;;;;;5049566;28;20040;-78
2023/07/29 06:35:31;;;;;;;4.07;2.65;;;20.80;99.90;;;;;;5039676;28;20119;-78
2023/07/29 06:37:57;;;;;;;11.25;3.67;;;20.50;99.90;;;;;;5049501;28;20044;-79
2023/07/29 06:40:23;;;;;;;4.97;3.25;;;20.40;99.90;;;;;;5052057;28;20059;-79
2023/07/29 06:42:48;;;;;;;6.30;3.03;;;20.20;99.90;;;;;;5054983;28;20045;-77
2023/07/29 06:45:15;;;;;;;6.90;3.17;;;20.00;99.90;;;;;;5050197;28;20116;-80
2023/07/29 06:47:41;;;;;;;6.43;3.22;;;19.90;99.90;;;;;;5050377;28;20048;-79
2023/07/29 06:50:06;;;;;;;10.57;3.47;;;19.70;99.90;;;;;;5045452;28;20044;-79
2023/07/29 06:52:32;;;;;;;8.68;3.83;;;19.60;99.90;;;;;;5052815;28;20090;-81
2023/07/29 06:54:58;;;;;;;6.32;3.55;;;19.50;99.90;;;;;;5051723;28;20067;-79
2023/07/29 06:57:24;;;;;;;6.65;3.30;;;19.40;99.90;;;;;;5038274;28;20048;-81
2023/07/29 07:03:21;;;;;;;8.55;3.80;;;19.60;99.90;;;;;;5061237;28;20056;-83
2023/07/29 07:05:47;;;;;;;6.00;3.15;;;19.70;99.90;;;;;;5040198;28;20063;-80
2023/07/29 07:08:12;;;;;;;6.40;3.75;;;20.10;99.90;;;;;;5045859;28;20072;-80
2023/07/29 07:10:38;;;;;;;9.45;3.72;;;20.40;99.90;;;;;;5049852;28;20029;-79
2023/07/29 07:13:04;;;;;;;6.40;3.45;;;20.50;99.90;;;;;;5052026;28;20747;-80
2023/07/29 07:15:29;;;;;;;4.45;3.67;;;20.40;99.90;;;;;;5049811;28;20036;-78
2023/07/29 07:17:55;;;;;;;5.60;3.08;;;20.30;99.90;;;;;;5052294;28;20037;-79
2023/07/29 07:20:20;;;;;;;9.57;3.95;;;20.10;99.90;;;;;;5049201;28;20041;-79
2023/07/29 07:22:46;;;;;;;10.48;4.35;;;20.00;99.90;;;;;;5050429;28;20123;-79
2023/07/29 07:25:11;;;;;;;9.77;3.75;;;19.90;99.90;;;;;;5053005;28;20044;-79
2023/07/29 07:27:37;;;;;;;6.88;4.00;;;19.90;99.90;;;;;;5051324;28;20044;-78
2023/07/29 07:30:03;;;;;;;7.63;3.63;;;19.80;99.90;;;;;;5050689;28;20041;-79
2023/07/29 07:32:29;;;;;;;7.50;4.18;;;19.90;99.90;;;;;;5043278;28;20403;-79
2023/07/29 07:34:54;;;;;;;10.75;4.13;;;19.90;99.90;;;;;;5046188;28;20140;-79
2023/07/29 07:37:20;;;;;;;6.05;4.10;;;19.80;99.90;;;;;;5048905;28;20047;-80
2023/07/29 07:39:46;;;;;;;8.95;4.32;;;19.90;99.90;;;;;;5046337;28;20045;-78
2023/07/29 07:42:11;;;;;;;7.47;4.03;;;19.90;99.90;;;;;;5054949;28;20074;-78
2023/07/29 07:44:37;;;;;;;8.63;3.90;;;20.00;99.90;;;;;;5031616;28;20040;-79
2023/07/29 07:47:03;;;;;;;8.52;4.00;;;20.00;99.90;;;;;;5045205;28;20158;-78
2023/07/29 07:49:28;;;;;;;6.88;3.78;;;19.90;99.90;;;;;;5049994;28;20104;-78
2023/07/29 07:51:57;;;;;;;6.38;3.88;;;19.90;99.90;;;;;;5049179;28;20041;-79
2023/07/29 07:54:23;;;;;;;6.25;3.83;;;19.90;99.90;;;;;;5033311;28;20479;-78
2023/07/29 07:56:48;;;;;;;9.43;3.33;;;19.80;99.90;;;;;;5032992;28;20045;-79
2023/07/29 07:59:14;;;;;;;6.35;3.03;;;19.70;99.90;;;;;;5035761;28;20048;-79
2023/07/29 08:01:39;;;;;;;6.82;3.40;;;19.80;99.90;;;;;;5053980;28;20033;-79
2023/07/29 08:04:06;;;;;;;7.63;3.40;;;19.70;99.90;;;;;;5021400;28;20037;-79
2023/07/29 08:06:32;;;;;;;7.97;3.65;;;19.80;99.90;;;;;;5050726;28;20032;-79
2023/07/29 08:08:58;;;;;;;6.53;3.10;;;19.90;99.90;;;;;;5047115;28;20182;-79
2023/07/29 08:11:24;;;;;;;10.10;3.05;;;19.90;99.90;;;;;;5044323;28;20594;-79
2023/07/29 08:13:49;;;;;;;5.43;3.08;;;20.00;99.90;;;;;;5047427;28;20078;-78
2023/07/29 08:16:15;;;;;;;8.93;3.22;;;20.10;99.90;;;;;;5049763;28;20077;-79
2023/07/29 08:18:41;;;;;;;6.05;2.60;;;20.30;99.90;;;;;;5048049;28;20044;-79
2023/07/29 08:21:06;;;;;;;4.97;2.65;;;20.70;99.90;;;;;;5051930;28;20048;-79
2023/07/29 08:23:34;;;;;;;3.15;2.45;;;21.10;99.90;;;;;;5051556;28;20040;-79
2023/07/29 08:26:03;;;;;;;4.82;2.67;;;21.50;99.90;;;;;;5048527;28;20071;-79
2023/07/29 08:28:34;;;;;;;7.03;2.58;;;21.80;99.90;;;;;;5049430;28;20098;-79
2023/07/29 08:30:59;;;;;;;6.43;3.22;;;21.90;99.90;;;;;;5050463;28;20492;-79
2023/07/29 08:33:27;;;;;;;4.70;2.13;;;22.00;99.90;;;;;;5050825;28;20123;-79
2023/07/29 08:35:53;;;;;;;3.47;1.70;;;21.80;99.90;;;;;;5047788;28;21470;-79
2023/07/29 08:38:19;;;;;;;7.57;1.50;;;21.60;99.90;;;;;;5050702;28;20123;-79
2023/07/29 08:41:16;;;;;;;3.10;1.52;;;21.40;99.90;;;;;;5052373;28;20028;-79
2023/07/29 08:44:07;;;;;;;3.17;1.45;;;21.40;99.90;;;;;;5050782;28;20206;-79
2023/07/29 08:46:33;;;;;;;5.55;2.65;;;21.40;99.90;;;;;;5052960;28;20109;-79
2023/07/29 08:48:59;;;;;;;5.13;2.17;;;21.40;99.90;;;;;;5050253;28;20053;-80
2023/07/29 08:51:26;;;;;;;5.18;1.90;;;21.30;99.90;;;;;;5055051;28;20029;-80
2023/07/29 08:53:52;;;;;;;4.32;1.92;;;21.20;99.90;;;;;;5053498;28;20045;-80
2023/07/29 08:56:18;;;;;;;7.70;2.28;;;21.40;99.90;;;;;;5053989;28;20048;-81
2023/07/29 08:58:44;;;;;;;5.90;1.88;;;21.40;99.90;;;;;;5048921;28;20041;-80
2023/07/29 09:01:09;;;;;;;3.67;1.58;;;21.70;99.90;;;;;;5048153;28;20087;-80
2023/07/29 09:03:36;;;;;;;6.55;1.65;;;21.60;99.90;;;;;;5053294;28;20068;-82
2023/07/29 09:06:02;;;;;;;5.10;1.90;;;21.70;99.90;;;;;;5054492;28;20588;-81
2023/07/29 09:08:28;;;;;;;6.30;1.73;;;22.00;99.90;;;;;;5052614;28;20068;-81
2023/07/29 09:11:00;;;;;;;4.80;1.75;;;22.40;99.90;;;;;;5054320;28;20047;-81
2023/07/29 09:13:28;;;;;;;7.18;1.50;;;22.70;99.90;;;;;;5036042;28;20033;-82
2023/07/29 09:15:56;;;;;;;2.92;1.30;;;22.80;99.90;;;;;;5033626;28;20499;-83
2023/07/29 09:18:22;;;;;;;6.07;1.80;;;22.80;99.90;;;;;;5055787;28;20033;-83
2023/07/29 09:20:49;;;;;;;5.15;1.48;;;22.70;99.90;;;;;;5054551;28;20044;-80
2023/07/29 09:23:15;;;;;;;2.35;1.30;;;22.50;99.90;;;;;;5056907;28;20067;-82
2023/07/29 09:25:46;;;;;;;5.30;1.52;;;22.40;99.90;;;;;;5057124;28;20041;-82
2023/07/29 09:28:14;;;;;;;6.45;3.22;;;22.60;99.90;;;;;;5054541;28;20045;-81
2023/07/29 09:30:42;;;;;;;4.82;1.70;;;22.70;99.90;;;;;;5054015;28;20088;-80
2023/07/29 09:33:08;;;;;;;8.02;1.63;;;22.90;99.90;;;;;;5051618;28;20060;-80
2023/07/29 09:35:36;;;;;;;7.70;1.90;;;22.90;99.90;;;;;;5051158;28;20077;-80
2023/07/29 09:38:05;;;;;;;3.95;1.30;;;22.80;99.90;;;;;;5052291;28;20123;-80
2023/07/29 09:40:39;;;;;;;4.47;1.70;;;23.00;99.90;;;;;;5052215;28;20313;-81
2023/07/29 09:43:05;;;;;;;3.40;1.50;;;23.10;99.90;;;;;;5052301;28;20045;-81
2023/07/29 09:45:33;;;;;;;3.95;0.93;;;22.90;99.90;;;;;;5046742;28;20083;-81
2023/07/29 09:47:59;;;;;;;4.00;0.90;;;22.90;99.90;;;;;;5032922;28;20080;-81
2023/07/29 09:50:26;;;;;;;10.88;4.28;;;23.10;99.90;;;;;;5052965;28;20069;-80
2023/07/29 09:52:53;;;;;;;5.38;2.55;;;23.20;99.90;;;;;;5053308;28;20037;-80
2023/07/29 09:55:21;;;;;;;5.82;2.30;;;23.20;99.90;;;;;;5053931;28;21283;-80
2023/07/29 09:57:47;;;;;;;16.90;1.98;;;23.20;99.90;;;;;;5050131;28;20045;-80
2023/07/29 10:00:13;;;;;;;5.10;1.73;;;23.20;99.90;;;;;;5048900;28;20503;-81
2023/07/29 10:02:40;;;;;;;3.33;1.20;;;23.10;99.90;;;;;;5054703;28;20045;-80
2023/07/29 10:05:08;;;;;;;5.65;1.52;;;23.00;99.90;;;;;;5052571;28;20041;-79
2023/07/29 10:07:36;;;;;;;3.15;1.20;;;23.00;99.90;;;;;;5056522;28;20072;-80
2023/07/29 10:10:03;;;;;;;8.38;2.08;;;22.90;99.90;;;;;;5054951;28;20166;-80
2023/07/29 10:12:30;;;;;;;2.25;1.13;;;23.00;99.90;;;;;;5057338;28;20040;-80
2023/07/29 10:14:59;;;;;;;4.00;1.50;;;23.10;99.90;;;;;;5050995;28;20041;-81
2023/07/29 10:17:26;;;;;;;6.85;1.85;;;23.10;99.90;;;;;;5056338;28;20048;-81
2023/07/29 10:19:52;;;;;;;2.75;1.30;;;23.00;99.90;;;;;;5057854;28;20492;-81
2023/07/29 10:22:20;;;;;;;4.60;1.40;;;22.90;99.90;;;;;;5039464;28;20041;-81
2023/07/29 10:24:48;;;;;;;1.30;0.80;;;22.70;99.90;;;;;;5054520;28;20407;-81
2023/07/29 10:27:17;;;;;;;2.78;1.15;;;22.60;99.90;;;;;;5055446;28;20086;-81
2023/07/29 10:29:45;;;;;;;4.90;1.17;;;22.60;99.90;;;;;;5058533;28;20040;-82
2023/07/29 10:32:11;;;;;;;5.70;1.55;;;22.60;99.90;;;;;;5056511;28;20044;-82
2023/07/29 10:34:38;;;;;;;10.20;2.08;;;22.50;99.90;;;;;;5053741;28;20078;-81
2023/07/29 10:37:04;;;;;;;4.97;1.13;;;22.20;99.90;;;;;;5034316;28;20037;-80
2023/07/29 10:39:39;;;;;;;7.78;1.83;;;22.00;99.90;;;;;;5055149;28;20033;-81
2023/07/29 10:42:06;;;;;;;5.45;1.65;;;21.80;99.90;;;;;;5037183;28;20036;-79
2023/07/29 10:44:43;;;;;;;6.70;1.48;;;21.50;99.90;;;;;;5045440;28;20395;-80
2023/07/29 10:47:13;;;;;;;3.78;0.90;;;21.40;99.90;;;;;;5063999;28;20040;-78
2023/07/29 10:49:43;;;;;;;4.43;1.27;;;21.30;99.90;;;;;;5052970;28;20510;-81
2023/07/29 10:52:13;;;;;;;2.08;0.77;;;21.10;99.90;;;;;;5053909;28;20037;-81
2023/07/29 10:54:42;;;;;;;18.33;2.50;;;20.90;99.90;;;;;;5050258;28;20037;-81
2023/07/29 10:57:07;;;;;;;2.17;0.75;;;20.60;99.90;;;;;;5050331;28;20111;-81
2023/07/29 10:59:36;;;;;;;6.78;0.90;;;20.30;99.90;;;;;;5051863;28;20061;-81
2023/07/29 11:02:02;;;;;;;2.55;0.73;;;20.00;99.90;;;;;;5054973;28;20103;-81
2023/07/29 11:04:30;;;;;;;4.05;0.98;;;19.90;99.90;;;;;;5055014;28;20056;-81
2023/07/29 11:07:07;;;;;;;2.55;0.93;;;20.10;99.90;;;;;;5049377;28;20044;-81
2023/07/29 11:09:50;;;;;;;4.10;1.02;;;20.70;99.90;;;;;;5054275;28;20507;-81
2023/07/29 11:12:38;;;;;;;3.88;1.25;;;20.60;99.90;;;;;;5050499;28;20072;-81
2023/07/29 11:15:10;;;;;;;4.45;1.75;;;20.70;99.90;;;;;;5052361;28;20047;-82
2023/07/29 11:17:59;;;;;;;3.45;1.30;;;20.80;99.90;;;;;;5028885;28;20041;-79
2023/07/29 11:20:27;;;;;;;4.35;1.52;;;20.80;99.90;;;;;;5045326;28;20067;-81
2023/07/29 11:22:54;;;;;;;8.18;1.63;;;21.00;99.90;;;;;;5049795;28;20036;-81
2023/07/29 11:25:21;;;;;;;4.75;1.50;;;21.20;99.90;;;;;;5048989;28;20551;-81
2023/07/29 11:27:46;;;;;;;6.13;1.52;;;21.30;99.90;;;;;;5054655;28;20037;-81
2023/07/29 11:30:15;;;;;;;3.67;1.60;;;21.30;99.90;;;;;;5052530;28;20032;-82
2023/07/29 11:32:43;;;;;;;2.90;1.42;;;21.20;99.90;;;;;;5052310;28;20051;-80
2023/07/29 11:35:12;;;;;;;3.17;1.52;;;21.30;99.90;;;;;;5033899;28;20040;-81
2023/07/29 11:37:39;;;;;;;9.23;2.55;;;21.30;99.90;;;;;;5052542;28;20438;-81
2023/07/29 11:40:06;;;;;;;4.38;1.77;;;21.40;99.90;;;;;;5054187;28;20093;-81
2023/07/29 11:42:33;;;;;;;6.90;1.85;;;21.60;99.90;;;;;;5058756;28;20041;-80
2023/07/29 11:45:00;;;;;;;5.13;1.50;;;21.50;99.90;;;;;;5052780;28;20041;-81
2023/07/29 11:47:26;;;;;;;5.68;2.25;;;21.30;99.90;;;;;;5052576;28;20120;-80
2023/07/29 11:49:55;;;;;;;9.68;3.22;;;21.20;99.90;;;;;;5047376;28;20075;-81
2023/07/29 11:52:20;;;;;;;7.55;1.73;;;21.10;99.90;;;;;;5052214;28;20430;-82
2023/07/29 11:54:49;;;;;;;5.95;1.92;;;21.10;99.90;;;;;;5035795;28;20037;-82
2023/07/29 11:57:18;;;;;;;3.50;1.70;;;21.10;99.90;;;;;;5053103;28;20035;-82
2023/07/29 11:59:44;;;;;;;4.60;2.03;;;21.30;99.90;;;;;;5055453;28;20041;-83
2023/07/29 12:02:19;;;;;;;5.22;2.05;;;21.50;99.90;;;;;;5035366;28;20045;-82
2023/07/29 12:04:47;;;;;;;5.07;1.83;;;21.40;99.90;;;;;;5051366;28;20025;-79
2023/07/29 12:07:14;;;;;;;4.82;1.60;;;21.50;99.90;;;;;;5054438;28;20056;-81
2023/07/29 12:09:41;;;;;;;4.95;2.13;;;21.60;99.90;;;;;;5052598;28;20052;-80
2023/07/29 12:12:07;;;;;;;3.75;1.25;;;21.70;99.90;;;;;;5056527;28;20059;-80
2023/07/29 12:14:33;;;;;;;2.75;1.60;;;21.80;99.90;;;;;;5056644;28;20037;-81
2023/07/29 12:17:04;;;;;;;4.05;1.70;;;22.10;99.90;;;;;;5049754;28;20128;-81
2023/07/29 12:19:35;;;;;;;3.35;1.48;;;22.30;99.90;;;;;;5036868;28;20044;-81
2023/07/29 12:22:02;;;;;;;6.10;1.30;;;22.20;99.90;;;;;;5052180;28;20056;-80
2023/07/29 12:24:30;;;;;;;4.28;1.38;;;22.20;99.90;;;;;;5037371;28;20044;-81
2023/07/29 12:26:55;;;;;;;4.00;1.85;;;22.10;99.90;;;;;;5055776;28;20033;-81
2023/07/29 12:29:21;;;;;;;4.60;1.70;;;22.40;99.90;;;;;;5054922;28;20124;-81
2023/07/29 12:31:46;;;;;;;2.40;1.23;;;22.60;99.90;;;;;;5058704;28;20047;-80
2023/07/29 12:34:21;;;;;;;1.67;0.77;;;22.80;99.90;;;;;;5054372;28;20040;-80
2023/07/29 12:36:51;;;;;;;6.70;1.60;;;22.90;99.90;;;;;;5054308;28;20119;-81
2023/07/29 12:39:28;;;;;;;2.63;1.08;;;23.10;99.90;;;;;;5055577;28;20040;-81
2023/07/29 12:41:55;;;;;;;2.63;1.10;;;23.20;99.90;;;;;;5057236;28;20035;-80
2023/07/29 12:44:23;;;;;;;6.15;1.70;;;23.40;99.90;;;;;;5053991;28;20304;-81
2023/07/29 12:46:49;;;;;;;3.03;1.35;;;23.40;99.90;;;;;;5054287;28;20118;-81
2023/07/29 12:49:14;;;;;;;2.78;1.10;;;23.40;99.90;;;;;;5050119;28;20060;-80